createdAt,value
2019-04-10T00:02:46.779Z,17.57
2019-04-10T00:07:43.747Z,16.83
2019-04-10T00:12:40.455Z,16.20
2019-04-10T00:17:36.226Z,15.67
2019-04-10T00:22:33.971Z,16.27
2019-04-10T00:27:30.437Z,16.40
2019-04-10T00:32:26.234Z,14.70
2019-04-10T00:37:27.222Z,15.47
2019-04-10T00:42:19.401Z,15.33
2019-04-10T00:47:15.245Z,15.93
2019-04-10T00:52:10.941Z,14.00
2019-04-10T00:57:07.384Z,16.80
2019-04-10T01:02:03.132Z,17.20
2019-04-10T01:06:58.823Z,16.87
2019-04-10T01:11:55.219Z,18.37
2019-04-10T01:16:51.497Z,18.23
2019-04-10T01:21:47.524Z,18.17
2019-04-10T01:26:43.375Z,17.37
2019-04-10T01:31:39.454Z,16.97
2019-04-10T01:36:35.378Z,18.77
2019-04-10T01:41:32.705Z,18.83
2019-04-10T01:46:28.545Z,17.93
2019-04-10T01:51:24.259Z,18.40
2019-04-10T01:56:27.632Z,18.63
2019-04-10T02:01:41.488Z,18.47
2019-04-10T02:06:37.797Z,19.63
2019-04-10T02:11:34.252Z,19.10
2019-04-10T02:16:30.560Z,18.57
2019-04-10T02:21:26.330Z,18.07
2019-04-10T02:26:22.351Z,19.53
2019-04-10T02:31:19.101Z,19.60
2019-04-10T02:36:15.379Z,19.60
2019-04-10T02:41:12.161Z,20.37
2019-04-10T02:46:08.456Z,19.27
2019-04-10T02:51:05.566Z,19.20
2019-04-10T02:56:02.949Z,20.00
2019-04-10T03:00:59.163Z,19.80
2019-04-10T03:05:56.465Z,19.43
2019-04-10T03:10:57.952Z,19.80
2019-04-10T03:15:49.919Z,19.80
2019-04-10T03:20:46.815Z,19.07
2019-04-10T03:25:43.304Z,18.87
2019-04-10T03:30:41.260Z,18.77
2019-04-10T03:35:43.104Z,19.40
2019-04-10T03:40:39.633Z,19.53
2019-04-10T03:45:35.370Z,18.90
2019-04-10T03:50:32.006Z,19.40
2019-04-10T03:55:27.721Z,19.40
2019-04-10T04:00:23.571Z,20.40
2019-04-10T04:05:20.289Z,19.43
2019-04-10T04:10:16.356Z,19.00
2019-04-10T04:15:13.480Z,19.33
2019-04-10T04:20:09.349Z,20.40
2019-04-10T04:25:05.327Z,20.87
2019-04-10T04:30:01.072Z,19.63
2019-04-10T04:34:56.754Z,20.80
2019-04-10T04:39:52.650Z,20.93
2019-04-10T04:44:52.106Z,21.23
2019-04-10T04:49:48.022Z,20.77
2019-04-10T04:54:43.759Z,21.60
2019-04-10T04:59:39.430Z,21.90
2019-04-10T05:04:35.569Z,22.17
2019-04-10T05:09:37.170Z,22.47
2019-04-10T05:14:29.484Z,22.73
2019-04-10T05:19:25.644Z,21.83
2019-04-10T05:24:22.005Z,22.33
2019-04-10T05:29:18.189Z,22.77
2019-04-10T05:34:14.022Z,23.20
2019-04-10T05:39:10.535Z,22.20
2019-04-10T05:44:07.438Z,23.50
2019-04-10T05:49:04.357Z,23.77
2019-04-10T05:54:00.209Z,24.40
2019-04-10T05:58:56.660Z,24.43
2019-04-10T06:03:52.633Z,24.07
2019-04-10T06:08:49.082Z,24.50
2019-04-10T06:13:45.271Z,24.20
2019-04-10T06:18:41.095Z,25.30
2019-04-10T06:23:36.969Z,22.57
2019-04-10T06:28:32.877Z,24.33
2019-04-10T06:33:28.763Z,22.53
2019-04-10T06:38:24.823Z,24.03
2019-04-10T06:43:22.582Z,25.00
2019-04-10T06:48:21.754Z,24.40
2019-04-10T06:53:22.650Z,25.43
2019-04-10T06:58:20.009Z,26.27
2019-04-10T07:03:16.922Z,25.63
2019-04-10T07:08:17.987Z,25.93
2019-04-10T07:13:12.318Z,25.17
2019-04-10T07:18:20.224Z,25.20
2019-04-10T07:23:29.269Z,24.77
2019-04-10T07:28:58.765Z,24.87
2019-04-10T07:34:06.828Z,23.53
2019-04-10T07:39:26.881Z,24.47
2019-04-10T07:44:35.710Z,23.97
2019-04-10T07:49:39.626Z,22.00
2019-04-10T07:54:44.596Z,23.47
2019-04-10T07:59:54.671Z,21.43
2019-04-10T08:05:29.866Z,23.20
2019-04-10T08:10:42.326Z,24.50
2019-04-10T08:16:00.605Z,24.30
2019-04-10T08:20:51.399Z,25.13
2019-04-10T08:32:09.786Z,22.30
2019-04-10T08:37:43.146Z,22.23
2019-04-10T08:42:55.735Z,21.63
2019-04-10T08:49:21.272Z,23.73
2019-04-10T08:59:05.546Z,23.93
2019-04-10T09:04:12.508Z,21.57
2019-04-10T09:09:54.088Z,20.83
2019-04-10T09:20:45.439Z,19.67
2019-04-10T09:31:07.353Z,20.83
2019-04-10T09:36:03.469Z,19.13
2019-04-10T09:41:11.932Z,21.60
2019-04-10T09:46:12.752Z,20.83
2019-04-10T09:51:16.177Z,20.30
2019-04-10T09:56:09.882Z,20.67
2019-04-10T10:01:16.081Z,20.90
2019-04-10T10:06:33.447Z,22.90
2019-04-10T10:11:27.226Z,20.97
2019-04-10T10:16:23.973Z,20.70
2019-04-10T10:21:22.262Z,21.70
2019-04-10T10:26:18.163Z,22.70
2019-04-10T10:31:14.058Z,23.73
2019-04-10T10:36:10.053Z,22.10
2019-04-10T10:41:06.732Z,21.87
2019-04-10T10:46:03.011Z,22.30
2019-04-10T10:50:58.950Z,22.70
2019-04-10T10:55:56.166Z,23.83
2019-04-10T11:00:52.155Z,23.67
2019-04-10T11:05:48.705Z,22.40
2019-04-10T11:10:49.114Z,24.43
2019-04-10T11:15:45.402Z,23.47
2019-04-10T11:20:39.884Z,22.40
2019-04-10T11:25:36.108Z,23.03
2019-04-10T11:30:36.234Z,25.43
2019-04-10T11:35:32.130Z,28.07
2019-04-10T11:40:29.574Z,19.97
2019-04-10T11:45:28.757Z,20.93
2019-04-10T11:50:25.402Z,21.17
2019-04-10T11:55:25.362Z,26.23
2019-04-10T12:00:23.739Z,28.50
2019-04-10T12:05:20.171Z,27.93
2019-04-10T12:15:15.031Z,29.67
2019-04-10T12:20:11.399Z,29.60
2019-04-10T12:25:07.643Z,28.83
2019-04-10T12:30:04.708Z,29.20
2019-04-10T12:35:00.873Z,29.07
2019-04-10T12:39:59.244Z,27.23
2019-04-10T12:44:55.558Z,30.27
2019-04-10T12:49:51.898Z,29.37
2019-04-10T12:54:47.763Z,29.97
2019-04-10T12:59:43.733Z,29.77
2019-04-10T13:04:40.669Z,30.87
2019-04-10T13:09:37.952Z,29.77
2019-04-10T13:14:34.803Z,28.97
2019-04-10T13:19:31.791Z,33.10
2019-04-10T13:24:28.001Z,29.00
2019-04-10T13:29:24.909Z,31.50
2019-04-10T13:34:21.506Z,32.07
2019-04-10T13:39:18.991Z,34.07
2019-04-10T13:44:16.317Z,34.20
2019-04-10T13:49:13.519Z,32.90
2019-04-10T13:54:10.379Z,33.17
2019-04-10T13:59:06.820Z,32.10
2019-04-10T14:04:02.981Z,32.27
2019-04-10T14:09:17.153Z,33.67
2019-04-10T14:14:00.224Z,33.80
2019-04-10T14:18:57.106Z,34.20
2019-04-10T14:23:53.588Z,34.53
2019-04-10T14:28:51.382Z,34.77
2019-04-10T14:33:48.843Z,33.93
2019-04-10T14:38:47.419Z,34.63
2019-04-10T14:43:45.162Z,36.70
2019-04-10T14:48:41.010Z,35.63
2019-04-10T14:53:37.256Z,37.03
2019-04-10T14:58:34.314Z,37.33
2019-04-10T15:03:30.789Z,36.67
2019-04-10T15:08:27.968Z,37.47
2019-04-10T15:13:24.433Z,36.17
2019-04-10T15:18:24.811Z,37.87
2019-04-10T15:23:20.847Z,36.40
2019-04-10T15:28:18.095Z,37.57
2019-04-10T15:33:14.242Z,36.60
2019-04-10T15:38:10.288Z,37.07
2019-04-10T15:43:06.901Z,38.60
2019-04-10T15:48:03.234Z,37.37
2019-04-10T15:52:59.991Z,40.53
2019-04-10T15:57:59.317Z,42.07
2019-04-10T16:02:59.024Z,38.60
2019-04-10T16:07:58.660Z,40.97
2019-04-10T16:12:55.954Z,39.63
2019-04-10T16:23:37.667Z,39.40
2019-04-10T16:28:37.601Z,42.73
2019-04-10T16:33:39.018Z,43.30
2019-04-10T16:38:36.425Z,40.07
2019-04-10T16:43:32.782Z,42.13
2019-04-10T16:48:29.254Z,40.93
2019-04-10T16:53:29.941Z,40.13
2019-04-10T16:58:26.085Z,43.43
2019-04-10T17:03:22.061Z,41.97
2019-04-10T17:08:19.744Z,40.77
2019-04-10T17:13:19.320Z,42.37
2019-04-10T17:18:15.502Z,42.50
2019-04-10T17:23:12.301Z,45.23
2019-04-10T17:28:08.538Z,42.87
2019-04-10T17:33:04.918Z,46.37
2019-04-10T17:38:00.861Z,44.93
2019-04-10T17:42:56.863Z,49.23
2019-04-10T17:47:54.667Z,49.33
2019-04-10T17:52:53.388Z,51.40
2019-04-10T17:57:49.449Z,50.47
2019-04-10T18:02:46.344Z,52.03
2019-04-10T18:07:42.355Z,52.87
2019-04-10T18:12:38.353Z,53.30
2019-04-10T18:17:35.290Z,51.53
2019-04-10T18:22:32.753Z,50.70
2019-04-10T18:27:28.627Z,51.23
2019-04-10T18:32:25.517Z,53.23
2019-04-10T18:37:24.841Z,55.50
2019-04-10T18:42:19.455Z,51.37
2019-04-10T18:47:16.518Z,53.13
2019-04-10T18:52:12.922Z,52.07
2019-04-10T18:57:09.390Z,51.73
2019-04-10T19:02:28.431Z,53.97
2019-04-10T19:07:23.535Z,53.97
2019-04-10T19:12:19.457Z,52.13
2019-04-10T19:17:18.998Z,51.93
2019-04-10T19:22:15.901Z,52.70
2019-04-10T19:27:12.411Z,50.07
2019-04-10T19:32:12.761Z,51.90
2019-04-10T19:37:09.122Z,53.50
2019-04-10T19:42:06.149Z,51.40
2019-04-10T19:47:02.678Z,50.53
2019-04-10T19:52:00.562Z,52.33
2019-04-10T19:56:57.149Z,50.73
2019-04-10T20:01:55.718Z,54.83
2019-04-10T20:06:54.409Z,53.93
2019-04-10T20:11:56.155Z,53.23
2019-04-10T20:16:51.342Z,53.23
2019-04-10T20:21:48.223Z,51.77
2019-04-10T20:26:44.076Z,54.13
2019-04-10T20:31:41.601Z,51.13
2019-04-10T20:36:38.866Z,49.30
2019-04-10T20:41:46.608Z,49.80
2019-04-10T20:46:34.353Z,50.00
2019-04-10T20:51:34.138Z,50.53
2019-04-10T20:56:30.766Z,46.60
2019-04-10T21:01:26.869Z,45.37
2019-04-10T21:06:23.311Z,44.60
2019-04-10T21:11:20.359Z,44.33
2019-04-10T21:16:17.701Z,42.47
2019-04-10T21:21:14.412Z,41.80
2019-04-10T21:26:10.336Z,43.63
2019-04-10T21:31:23.701Z,42.27
2019-04-10T21:36:20.589Z,40.60
2019-04-10T21:41:16.966Z,41.97
2019-04-10T21:46:13.053Z,42.67
2019-04-10T21:51:10.961Z,43.13
2019-04-10T21:56:08.433Z,41.57
2019-04-10T22:01:10.506Z,40.37
2019-04-10T22:06:26.751Z,41.57
2019-04-10T22:11:25.331Z,41.03
2019-04-10T22:16:24.053Z,39.40
2019-04-10T22:21:20.722Z,36.90
2019-04-10T22:26:17.879Z,40.67
2019-04-10T22:31:14.341Z,37.10
2019-04-10T22:36:10.833Z,39.20
2019-04-10T22:41:18.765Z,39.87
2019-04-10T22:46:04.932Z,39.47
2019-04-10T22:51:01.238Z,39.30
2019-04-10T22:55:58.424Z,39.37
2019-04-10T23:00:55.839Z,38.93
2019-04-10T23:05:52.995Z,37.03
2019-04-10T23:10:49.188Z,38.00
2019-04-10T23:15:45.271Z,37.13
2019-04-10T23:20:41.744Z,36.63
2019-04-10T23:25:37.863Z,36.53
2019-04-10T23:30:35.042Z,38.77
2019-04-10T23:35:31.624Z,38.20
2019-04-10T23:40:27.687Z,36.77
2019-04-10T23:45:23.892Z,39.27
2019-04-10T23:50:20.078Z,39.50
2019-04-10T23:55:17.812Z,40.63
